Weather at West Palm Beach Police Station Heliport

Public forecast

Using degrees Fahrenheit for public forecast. Weather courtesy of forecast.io.

Closest aviation weather report (METAR) to West Palm Beach Police Station Heliport

Closest report is Palm Beach International Airport, 2.7 nm (5.1 km) SW.

2024/05/20 23:58 (retrieved 1 hour ago)

KPBI 202358Z 02012G16KT 10SM FEW015 SCT035 BKN060 27/23 A2986 RMK AO2 TSE57 OCNL LTGIC DSNT E-SE CB DSNT E-SE T02670233

Closest aviation forecast (TAF) to West Palm Beach Police Station Heliport

Forecast is more than 6 hours old.

Closest forecast is Grand Bahama International Airport, 73.7 nm (136.5 km) E.

2024/05/20 18:51 (retrieved 6 hours ago)

TAF MYGF 201735Z 2018/2118 25006KT 9999 SCT025 FM210100 25005KT 9999 VCTS FEW018CB SCT020